Time;durP1;ratioP1;P1;durP2;ratioP2;P2;SDS_P1;SDS_P2;PMS_P1;PMS_P2;Temp;Humidity;BMP_temperature;BMP_pressure;BME280_temperature;BME280_humidity;BME280_pressure;Samples;Min_cycle;Max_cycle;Signal;HPM_P1;HPM_P2
2022/07/14 00:00:39;;;;;;;3.52;2.65;;;;;;;21.94;57.25;98260.30;1762052;79;28158;-88
2022/07/14 00:03:13;;;;;;;3.17;2.47;;;;;;;21.92;57.35;98261.00;1765138;79;28168;-88
2022/07/14 00:05:39;;;;;;;7.62;2.47;;;;;;;21.87;57.46;98257.55;1754747;78;27995;-88
2022/07/14 00:08:10;;;;;;;3.30;2.20;;;;;;;21.86;57.46;98255.06;1753008;78;28116;-88
2022/07/14 00:10:34;;;;;;;5.00;1.77;;;;;;;21.84;57.46;98255.23;1758319;79;28058;-88
2022/07/14 00:13:00;;;;;;;3.60;2.05;;;;;;;21.83;57.47;98247.42;1751454;79;28204;-88
2022/07/14 00:15:27;;;;;;;5.72;2.00;;;;;;;21.84;57.45;98251.75;1751023;79;28079;-89
2022/07/14 00:17:56;;;;;;;5.20;1.87;;;;;;;21.84;57.37;98248.58;1750783;79;28066;-88
2022/07/14 00:20:31;;;;;;;5.00;2.12;;;;;;;21.84;57.40;98243.75;1726060;81;28077;-88
2022/07/14 00:22:59;;;;;;;2.98;2.05;;;;;;;21.84;57.56;98244.58;1708631;81;28432;-89
2022/07/14 00:25:36;;;;;;;3.30;1.65;;;;;;;21.82;57.59;98243.92;1705783;81;28094;-89
2022/07/14 00:28:02;;;;;;;5.35;2.02;;;;;;;21.79;57.53;98246.97;1714210;81;28109;-89
2022/07/14 00:30:31;;;;;;;4.87;2.00;;;;;;;21.80;57.51;98239.30;1696610;82;27983;-89
2022/07/14 00:32:57;;;;;;;5.50;1.90;;;;;;;21.79;57.57;98238.98;1719446;81;28082;-89
2022/07/14 00:35:24;;;;;;;4.62;1.98;;;;;;;21.78;57.74;98243.98;1750548;79;28062;-89
2022/07/14 00:37:56;;;;;;;3.62;1.98;;;;;;;21.78;57.79;98242.64;1760370;78;28081;-89
2022/07/14 00:40:20;;;;;;;5.30;2.30;;;;;;;21.77;57.83;98235.66;1755546;78;28187;-88
2022/07/14 00:42:49;;;;;;;4.78;2.30;;;;;;;21.78;58.01;98238.64;1758996;78;28058;-88
2022/07/14 00:45:17;;;;;;;5.00;2.35;;;;;;;21.79;58.10;98228.82;1750767;80;28109;-88
2022/07/14 00:47:44;;;;;;;4.00;2.30;;;;;;;21.78;58.23;98230.66;1706775;82;28189;-88
2022/07/14 00:50:16;;;;;;;4.45;2.60;;;;;;;21.78;58.40;98238.64;1732295;80;28081;-88
2022/07/14 00:52:50;;;;;;;4.45;2.52;;;;;;;21.79;58.67;98227.48;1737952;81;28094;-88
2022/07/14 00:55:19;;;;;;;2.72;1.90;;;;;;;21.80;58.88;98224.66;1757129;79;28090;-88
2022/07/14 00:57:50;;;;;;;2.92;2.08;;;;;;;21.78;58.95;98221.83;1755886;79;28128;-89
2022/07/14 01:00:17;;;;;;;3.72;2.22;;;;;;;21.75;58.93;98224.87;1752894;79;28111;-89
2022/07/14 01:02:45;;;;;;;3.35;1.40;;;;;;;21.73;59.06;98222.89;1758469;78;28173;-88
2022/07/14 01:05:13;;;;;;;5.15;1.87;;;;;;;21.69;59.00;98218.44;1762910;79;28209;-88
2022/07/14 01:07:42;;;;;;;3.87;1.65;;;;;;;21.67;58.95;98220.45;1767000;79;28138;-88
2022/07/14 01:10:09;;;;;;;2.65;1.70;;;;;;;21.67;59.00;98218.61;1756475;79;28062;-88
2022/07/14 01:12:37;;;;;;;4.62;1.60;;;;;;;21.65;59.07;98216.66;1764000;79;27996;-88
2022/07/14 01:15:06;;;;;;;2.62;1.45;;;;;;;21.62;59.05;98216.17;1748212;79;28100;-88
2022/07/14 01:17:32;;;;;;;3.42;1.60;;;;;;;21.62;59.01;98213.52;1756710;79;28066;-88
2022/07/14 01:19:58;;;;;;;3.55;1.57;;;;;;;21.61;59.16;98215.34;1759107;78;28101;-87
2022/07/14 01:22:24;;;;;;;3.20;1.47;;;;;;;21.62;59.22;98212.18;1762274;79;28071;-88
2022/07/14 01:24:55;;;;;;;2.20;1.40;;;;;;;21.62;59.35;98214.34;1754713;79;28141;-88
2022/07/14 01:27:21;;;;;;;2.33;1.75;;;;;;;21.64;59.45;98211.50;1752791;80;28157;-88
2022/07/14 01:29:54;;;;;;;2.60;1.62;;;;;;;21.64;59.52;98209.67;1733005;80;28138;-88
2022/07/14 01:32:23;;;;;;;4.72;1.75;;;;;;;21.67;59.60;98207.12;1736449;79;28115;-88
2022/07/14 01:34:49;;;;;;;4.60;1.67;;;;;;;21.68;59.67;98210.13;1734982;79;28073;-88
2022/07/14 01:37:16;;;;;;;4.25;1.95;;;;;;;21.67;59.71;98205.80;1748116;81;43023;-88
2022/07/14 01:39:44;;;;;;;3.02;1.85;;;;;;;21.66;59.83;98208.13;1737831;79;28088;-88
2022/07/14 01:42:11;;;;;;;3.37;1.60;;;;;;;21.64;59.86;98202.19;1738381;80;28092;-88
2022/07/14 01:44:39;;;;;;;3.80;1.80;;;;;;;21.60;59.88;98201.70;1739171;80;28009;-88
2022/07/14 01:47:05;;;;;;;4.33;1.98;;;;;;;21.59;59.95;98201.91;1740228;79;28107;-88
2022/07/14 01:49:37;;;;;;;5.65;2.10;;;;;;;21.58;60.03;98194.92;1733237;81;28111;-88
2022/07/14 01:52:04;;;;;;;5.50;2.35;;;;;;;21.57;60.25;98193.26;1744703;79;28071;-88
2022/07/14 01:54:33;;;;;;;4.95;1.90;;;;;;;21.54;60.40;98197.63;1741050;80;28002;-88
2022/07/14 01:57:09;;;;;;;3.17;2.02;;;;;;;21.50;60.53;98194.98;1729468;79;28076;-88
2022/07/14 01:59:37;;;;;;;6.10;2.30;;;;;;;21.47;60.57;98193.53;1734386;80;28098;-88
2022/07/14 02:02:03;;;;;;;6.22;2.10;;;;;;;21.46;60.74;98187.05;1728239;79;28191;-87
2022/07/14 02:04:31;;;;;;;5.87;2.52;;;;;;;21.46;60.92;98181.22;1738643;79;43404;-87
2022/07/14 02:06:57;;;;;;;4.62;2.50;;;;;;;21.45;61.08;98188.05;1748160;79;28186;-87
2022/07/14 02:12:10;;;;;;;4.70;2.58;;;;;;;21.43;61.25;98188.75;1740500;81;28106;-88
2022/07/14 02:14:42;;;;;;;3.92;2.15;;;;;;;21.43;61.55;98182.09;1728400;79;28023;-87
2022/07/14 02:17:11;;;;;;;6.53;2.20;;;;;;;21.42;61.63;98180.44;1732828;80;28113;-88
2022/07/14 02:19:37;;;;;;;4.50;2.10;;;;;;;21.39;61.69;98183.45;1735636;81;28094;-88
2022/07/14 02:22:04;;;;;;;4.45;2.15;;;;;;;21.39;61.87;98184.28;1732324;81;28056;-87
2022/07/14 02:24:37;;;;;;;3.35;1.65;;;;;;;21.41;62.04;98184.10;1737486;79;28142;-88
2022/07/14 02:27:05;;;;;;;5.95;1.92;;;;;;;21.40;62.05;98182.45;1759372;79;28163;-88
2022/07/14 02:29:42;;;;;;;4.47;1.70;;;;;;;21.40;62.03;98181.11;1762240;79;28082;-88
2022/07/14 02:32:09;;;;;;;3.00;1.50;;;;;;;21.39;62.12;98183.45;1756228;79;28043;-88
2022/07/14 02:34:35;;;;;;;5.50;2.10;;;;;;;21.37;62.24;98178.83;1757830;79;28110;-88
2022/07/14 02:37:02;;;;;;;3.50;1.60;;;;;;;21.39;62.43;98184.78;1714617;81;28168;-89
2022/07/14 02:39:28;;;;;;;2.77;1.67;;;;;;;21.40;62.54;98187.27;1761974;79;28143;-88
2022/07/14 02:41:54;;;;;;;4.65;1.90;;;;;;;21.41;62.42;98190.26;1759114;79;28151;-88
2022/07/14 02:44:20;;;;;;;4.47;1.70;;;;;;;21.42;62.48;98189.76;1760543;79;28034;-88
2022/07/14 02:46:46;;;;;;;4.25;1.80;;;;;;;21.43;62.53;98187.42;1761864;78;28021;-89
2022/07/14 02:49:13;;;;;;;3.65;1.80;;;;;;;21.45;62.64;98192.05;1756774;79;28156;-89
2022/07/14 02:51:39;;;;;;;2.70;1.70;;;;;;;21.43;62.71;98190.91;1757995;80;28071;-89
2022/07/14 02:54:07;;;;;;;5.15;2.00;;;;;;;21.42;62.79;98191.92;1759503;80;28130;-89
2022/07/14 02:56:39;;;;;;;4.92;1.95;;;;;;;21.40;62.83;98190.43;1747491;79;28125;-89
2022/07/14 02:59:18;;;;;;;4.20;2.12;;;;;;;21.38;62.94;98192.47;1758834;79;28500;-89
2022/07/14 03:01:45;;;;;;;6.97;2.25;;;;;;;21.38;63.09;98188.47;1757091;80;28069;-88
2022/07/14 03:04:27;;;;;;;6.28;1.90;;;;;;;21.38;63.30;98189.81;1716482;81;28169;-89
2022/07/14 03:06:53;;;;;;;5.83;2.45;;;;;;;21.37;63.42;98194.80;1731143;81;28183;-89
2022/07/14 03:09:27;;;;;;;4.03;1.95;;;;;;;21.34;63.61;98194.64;1733145;80;28073;-88
2022/07/14 03:12:02;;;;;;;3.33;2.10;;;;;;;21.34;63.80;98192.48;1737016;80;28165;-88
2022/07/14 03:14:28;;;;;;;8.10;2.27;;;;;;;21.35;63.97;98206.12;1735189;81;28137;-88
2022/07/14 03:16:55;;;;;;;5.05;2.00;;;;;;;21.32;64.12;98199.84;1738833;80;28152;-89
2022/07/14 03:19:30;;;;;;;5.00;2.15;;;;;;;21.29;64.18;98201.84;1737290;80;28140;-89
2022/07/14 03:21:59;;;;;;;5.40;2.00;;;;;;;21.28;64.18;98206.02;1736735;81;28153;-88
2022/07/14 03:24:26;;;;;;;4.70;1.92;;;;;;;21.26;64.26;98212.87;1687117;82;28104;-88
2022/07/14 03:26:56;;;;;;;3.35;1.52;;;;;;;21.26;64.33;98215.53;1729910;81;28144;-88
2022/07/14 03:29:23;;;;;;;4.40;1.90;;;;;;;21.24;64.34;98218.86;1749839;79;28102;-89
2022/07/14 03:32:04;;;;;;;5.72;1.87;;;;;;;21.23;64.29;98219.86;1758926;79;27999;-89
2022/07/14 03:34:31;;;;;;;2.52;1.62;;;;;;;21.22;64.33;98215.54;1761677;79;28071;-89
2022/07/14 03:36:57;;;;;;;4.70;2.17;;;;;;;21.25;64.57;98215.20;1745242;79;28191;-89
2022/07/14 03:39:28;;;;;;;4.03;1.82;;;;;;;21.29;64.80;98212.49;1749321;79;28080;-89
2022/07/14 03:41:52;;;;;;;4.00;1.80;;;;;;;21.31;64.78;98212.33;1751551;79;28116;-88
2022/07/14 03:44:18;;;;;;;3.33;2.02;;;;;;;21.34;64.74;98216.45;1753704;79;28179;-88
2022/07/14 03:46:48;;;;;;;6.75;2.15;;;;;;;21.34;64.72;98212.45;1753228;79;28066;-89
2022/07/14 03:49:14;;;;;;;4.22;1.80;;;;;;;21.33;64.73;98224.93;1749698;80;28071;-88
2022/07/14 03:51:44;;;;;;;4.20;1.72;;;;;;;21.32;64.71;98229.12;1753517;79;28380;-89
2022/07/14 03:54:11;;;;;;;3.67;1.85;;;;;;;21.32;64.72;98225.96;1760281;79;28069;-89
2022/07/14 03:56:37;;;;;;;5.45;2.20;;;;;;;21.33;64.72;98228.92;1755310;79;28100;-89
2022/07/14 03:59:05;;;;;;;7.33;2.20;;;;;;;21.36;64.80;98223.76;1751552;79;28101;-89
2022/07/14 04:01:31;;;;;;;7.55;1.90;;;;;;;21.38;64.88;98221.75;1761328;79;28169;-88
2022/07/14 04:03:57;;;;;;;4.80;1.82;;;;;;;21.38;65.03;98214.59;1759203;79;28117;-89
2022/07/14 04:06:24;;;;;;;10.93;1.72;;;;;;;21.40;65.13;98219.72;1754218;80;28071;-88
2022/07/14 04:08:54;;;;;;;6.70;3.15;;;;;;;21.42;65.29;98214.55;1747337;79;28175;-89
2022/07/14 04:11:18;;;;;;;6.47;2.30;;;;;;;21.46;65.46;98211.84;1759536;79;28082;-88
2022/07/14 04:13:45;;;;;;;6.62;2.30;;;;;;;21.51;65.56;98214.78;1758686;79;28160;-88
2022/07/14 04:16:12;;;;;;;3.70;2.40;;;;;;;21.54;65.76;98213.61;1754648;79;28099;-88
2022/07/14 04:18:40;;;;;;;6.20;2.60;;;;;;;21.56;65.97;98207.58;1759257;79;27984;-88
2022/07/14 04:21:12;;;;;;;6.00;2.27;;;;;;;21.58;66.24;98204.23;1755747;79;28087;-88
2022/07/14 04:23:36;;;;;;;6.25;2.30;;;;;;;21.57;66.35;98204.73;1752269;79;28267;-88
2022/07/14 04:26:03;;;;;;;6.65;2.00;;;;;;;21.57;66.48;98203.41;1756596;79;28078;-88
2022/07/14 04:28:30;;;;;;;6.17;1.82;;;;;;;21.57;66.47;98204.73;1752749;79;28112;-89
2022/07/14 04:31:04;;;;;;;4.97;2.25;;;;;;;21.59;66.47;98207.23;1760606;78;28080;-90
2022/07/14 04:33:31;;;;;;;7.75;1.92;;;;;;;21.60;66.59;98203.03;1724285;81;28099;-89
2022/07/14 04:35:59;;;;;;;4.50;1.90;;;;;;;21.63;66.81;98201.85;1755502;79;28147;-88
2022/07/14 04:38:33;;;;;;;3.40;1.82;;;;;;;21.66;66.91;98204.97;1747578;79;28050;-88
2022/07/14 04:41:01;;;;;;;3.52;1.55;;;;;;;21.66;67.00;98206.30;1752711;79;28168;-89
2022/07/14 04:43:34;;;;;;;6.60;1.82;;;;;;;21.68;66.93;98204.80;1720984;81;28003;-88
2022/07/14 04:46:00;;;;;;;7.22;1.82;;;;;;;21.75;66.95;98211.05;1753317;79;28088;-87
2022/07/14 04:48:26;;;;;;;4.20;1.70;;;;;;;21.79;67.02;98206.17;1750139;79;28089;-87
2022/07/14 04:53:37;;;;;;;3.42;1.65;;;;;;;21.92;67.18;98201.87;1758007;79;28071;-89
2022/07/14 04:56:03;;;;;;;5.97;1.80;;;;;;;21.99;67.47;98204.13;1730351;81;28072;-88
2022/07/14 04:58:31;;;;;;;3.77;1.67;;;;;;;22.02;67.60;98198.45;1756929;79;28165;-88
2022/07/14 05:01:01;;;;;;;5.75;2.30;;;;;;;22.07;67.87;98200.55;1757674;79;28079;-89
2022/07/14 05:03:27;;;;;;;3.10;1.70;;;;;;;22.12;68.30;98194.16;1758160;79;28146;-88
2022/07/14 05:05:53;;;;;;;5.03;1.95;;;;;;;22.18;68.68;98201.92;1753469;79;28107;-87
2022/07/14 05:08:19;;;;;;;5.50;2.12;;;;;;;22.21;68.91;98203.69;1755337;80;28484;-88
2022/07/14 05:10:46;;;;;;;10.32;2.47;;;;;;;22.25;69.27;98207.66;1750111;79;28134;-88
2022/07/14 05:13:14;;;;;;;7.05;2.45;;;;;;;22.32;69.59;98209.05;1734053;80;28075;-88
2022/07/14 05:15:40;;;;;;;6.03;2.37;;;;;;;22.38;69.86;98215.80;1751347;79;28037;-88
2022/07/14 05:18:11;;;;;;;7.80;2.40;;;;;;;22.43;69.98;98216.58;1758747;79;28098;-88
2022/07/14 05:20:38;;;;;;;7.25;2.33;;;;;;;22.42;69.82;98223.74;1762868;80;27999;-88
2022/07/14 05:23:04;;;;;;;10.03;2.25;;;;;;;22.43;69.76;98224.57;1759393;79;28113;-88
2022/07/14 05:25:30;;;;;;;5.97;2.05;;;;;;;22.45;69.82;98225.22;1725116;81;28016;-88
2022/07/14 05:27:56;;;;;;;5.62;2.30;;;;;;;22.51;70.03;98232.48;1760708;79;28059;-88
2022/07/14 05:30:23;;;;;;;10.32;2.40;;;;;;;22.57;70.26;98233.06;1751452;80;28178;-88
2022/07/14 05:32:51;;;;;;;5.03;2.08;;;;;;;22.63;70.48;98232.31;1722748;81;28108;-88
2022/07/14 05:35:17;;;;;;;7.50;2.45;;;;;;;22.68;70.85;98237.08;1757939;79;27995;-88
2022/07/14 05:37:43;;;;;;;7.65;2.20;;;;;;;22.72;70.94;98234.38;1756123;79;28093;-88
2022/07/14 05:40:11;;;;;;;5.05;2.20;;;;;;;22.78;71.04;98233.13;1753581;79;28074;-88
2022/07/14 05:42:43;;;;;;;6.15;2.52;;;;;;;22.83;71.20;98236.05;1753230;79;28125;-88
2022/07/14 05:45:09;;;;;;;6.42;2.30;;;;;;;22.90;71.45;98229.45;1757674;79;28003;-88
2022/07/14 05:47:36;;;;;;;10.05;2.58;;;;;;;23.02;71.70;98229.23;1725754;81;28084;-88
2022/07/14 05:50:05;;;;;;;10.23;2.72;;;;;;;23.13;72.00;98231.40;1764862;79;28124;-88
2022/07/14 05:52:32;;;;;;;6.70;2.45;;;;;;;23.25;72.19;98230.38;1754092;79;28104;-88
2022/07/14 05:55:00;;;;;;;3.95;1.82;;;;;;;23.36;72.46;98231.19;1760937;79;28021;-88
2022/07/14 05:57:27;;;;;;;4.42;1.72;;;;;;;23.42;72.54;98227.75;1757260;79;28100;-88
2022/07/14 05:59:55;;;;;;;5.20;1.62;;;;;;;23.50;72.52;98226.32;1755386;79;28103;-88
2022/07/14 06:02:21;;;;;;;5.95;1.60;;;;;;;23.59;72.54;98219.80;1753538;80;28178;-89
2022/07/14 06:04:53;;;;;;;8.00;1.80;;;;;;;23.67;72.27;98230.36;1762444;79;28118;-88
2022/07/14 06:07:20;;;;;;;;;;;;;;;23.72;71.79;98233.27;1763613;79;28083;-88
2022/07/14 06:09:50;;;;;;;1.35;1.10;;;;;;;23.81;71.53;98227.76;1754911;79;24451;-88
2022/07/14 06:12:18;;;;;;;3.75;1.50;;;;;;;23.87;71.43;98223.80;1755478;79;28103;-89
2022/07/14 06:14:45;;;;;;;6.33;1.80;;;;;;;23.95;71.46;98224.95;1752456;79;28077;-88
2022/07/14 06:17:19;;;;;;;3.67;1.55;;;;;;;24.01;71.22;98232.19;1740823;81;28140;-88
2022/07/14 06:19:45;;;;;;;3.85;1.77;;;;;;;24.05;70.84;98226.79;1714124;81;28081;-89
2022/07/14 06:22:12;;;;;;;5.58;1.57;;;;;;;24.06;70.58;98228.92;1749616;79;28100;-89
2022/07/14 06:24:38;;;;;;;4.28;1.20;;;;;;;24.10;70.24;98227.02;1749368;79;28081;-89
2022/07/14 06:27:05;;;;;;;5.92;2.50;;;;;;;24.12;70.04;98223.62;1749732;80;28112;-88
2022/07/14 06:29:31;;;;;;;3.17;1.70;;;;;;;24.16;69.67;98228.91;1749186;79;28011;-88
2022/07/14 06:31:57;;;;;;;3.77;1.55;;;;;;;24.20;69.42;98227.19;1745866;80;28064;-89
2022/07/14 06:34:25;;;;;;;6.20;1.98;;;;;;;24.20;69.21;98228.02;1749957;79;28089;-89
2022/07/14 06:36:51;;;;;;;5.17;2.10;;;;;;;24.18;68.79;98222.03;1756999;79;28063;-88
2022/07/14 06:39:19;;;;;;;2.70;1.50;;;;;;;24.18;68.40;98227.38;1758121;79;28135;-88
2022/07/14 06:41:45;;;;;;;6.03;1.92;;;;;;;24.17;68.27;98223.02;1773021;79;28094;-88
2022/07/14 06:44:12;;;;;;;9.08;1.67;;;;;;;24.20;68.11;98228.02;1760831;79;28107;-88
2022/07/14 06:46:40;;;;;;;3.47;2.02;;;;;;;24.21;67.95;98231.02;1759195;79;28141;-89
2022/07/14 06:49:07;;;;;;;2.75;1.60;;;;;;;24.24;68.06;98225.25;1752250;79;28070;-88
2022/07/14 06:51:33;;;;;;;3.05;1.12;;;;;;;24.26;67.85;98225.06;1751033;79;28052;-88
2022/07/14 06:53:59;;;;;;;1.65;1.10;;;;;;;24.30;67.47;98232.48;1752575;80;28195;-88
2022/07/14 06:56:27;;;;;;;3.72;1.10;;;;;;;24.33;67.25;98233.41;1756357;79;28089;-88
2022/07/14 06:58:53;;;;;;;4.35;1.22;;;;;;;24.38;67.22;98231.50;1749638;80;28081;-88
2022/07/14 07:01:19;;;;;;;6.97;1.05;;;;;;;24.41;67.11;98226.56;1759152;80;28098;-88
2022/07/14 07:03:46;;;;;;;2.50;1.00;;;;;;;24.44;66.76;98229.34;1747723;79;28090;-88
2022/07/14 07:09:03;;;;;;;3.05;0.82;;;;;;;24.53;66.24;98233.00;1762646;79;28153;-87
2022/07/14 07:11:29;;;;;;;2.50;1.10;;;;;;;24.56;65.93;98232.58;1752545;80;28118;-88
2022/07/14 07:13:56;;;;;;;1.45;0.90;;;;;;;24.64;65.49;98233.44;1748513;78;28082;-87
2022/07/14 07:16:23;;;;;;;1.80;1.12;;;;;;;24.68;65.08;98231.48;1761825;79;28134;-88
2022/07/14 07:18:58;;;;;;;1.37;0.98;;;;;;;24.77;64.86;98227.59;1762622;79;28077;-88
2022/07/14 07:21:24;;;;;;;1.40;1.30;;;;;;;24.87;64.70;98224.55;1756012;80;28060;-88
2022/07/14 07:23:51;;;;;;;1.27;0.90;;;;;;;24.95;64.20;98224.38;1760156;80;28176;-88
2022/07/14 07:26:21;;;;;;;1.45;0.95;;;;;;;25.00;63.97;98221.91;1759882;79;28111;-88
2022/07/14 07:28:47;;;;;;;1.85;0.90;;;;;;;25.03;63.96;98224.70;1756584;80;28012;-88
2022/07/14 07:31:15;;;;;;;2.30;1.17;;;;;;;25.02;63.89;98223.88;1753220;79;28082;-88
2022/07/14 07:33:42;;;;;;;1.98;1.25;;;;;;;25.05;63.79;98226.65;1749754;79;28149;-88
2022/07/14 07:36:08;;;;;;;2.27;1.00;;;;;;;25.14;63.65;98231.63;1718100;81;27995;-87
2022/07/14 07:38:34;;;;;;;1.37;1.00;;;;;;;25.22;63.56;98230.08;1750744;81;28097;-88
2022/07/14 07:41:02;;;;;;;3.00;1.10;;;;;;;25.29;63.29;98229.58;1758790;79;28414;-88
2022/07/14 07:43:37;;;;;;;4.42;1.10;;;;;;;25.31;62.71;98228.04;1756092;79;28073;-88
2022/07/14 07:46:05;;;;;;;2.05;0.90;;;;;;;25.32;62.29;98222.96;1753471;79;28178;-88
2022/07/14 07:48:37;;;;;;;1.50;1.17;;;;;;;25.36;62.11;98220.20;1751765;79;28117;-88
2022/07/14 07:51:03;;;;;;;2.55;1.00;;;;;;;25.42;62.08;98222.86;1756532;79;28140;-88
2022/07/14 07:53:30;;;;;;;1.92;1.15;;;;;;;25.46;61.81;98223.29;1755160;80;28077;-88
2022/07/14 07:55:59;;;;;;;2.35;1.40;;;;;;;25.53;61.52;98208.55;1727791;81;28053;-88
2022/07/14 07:58:28;;;;;;;4.83;1.32;;;;;;;25.59;61.26;98212.58;1758852;79;28076;-88
2022/07/14 08:00:54;;;;;;;5.87;1.30;;;;;;;25.68;61.35;98210.00;1750890;79;28139;-88
2022/07/14 08:03:20;;;;;;;1.70;1.10;;;;;;;25.75;61.47;98211.31;1752519;79;28210;-88
2022/07/14 08:05:46;;;;;;;2.65;1.55;;;;;;;25.78;60.94;98212.25;1750954;79;28067;-89
2022/07/14 08:08:14;;;;;;;1.80;0.98;;;;;;;25.82;60.71;98213.47;1754588;79;28154;-88
2022/07/14 08:10:43;;;;;;;0.82;0.80;;;;;;;25.90;60.99;98215.13;1748442;79;28184;-88
2022/07/14 08:13:10;;;;;;;1.70;1.02;;;;;;;25.95;60.75;98215.31;1752003;79;28117;-88
2022/07/14 08:15:37;;;;;;;2.25;1.30;;;;;;;25.95;60.45;98219.34;1730593;81;28071;-88
2022/07/14 08:18:03;;;;;;;1.82;1.10;;;;;;;26.02;60.50;98215.58;1756580;79;28146;-87
2022/07/14 08:20:36;;;;;;;1.87;1.20;;;;;;;26.12;60.74;98214.65;1751316;80;28091;-88
2022/07/14 08:23:04;;;;;;;1.75;1.10;;;;;;;26.21;60.48;98211.20;1753980;79;28164;-88
2022/07/14 08:25:33;;;;;;;1.27;1.10;;;;;;;26.30;60.27;98214.49;1749958;79;28034;-88
2022/07/14 08:27:59;;;;;;;4.17;1.17;;;;;;;26.33;59.83;98214.91;1734325;80;28199;-88
2022/07/14 08:30:25;;;;;;;1.87;1.00;;;;;;;26.40;59.46;98219.74;1732816;81;28106;-88
2022/07/14 08:32:52;;;;;;;3.35;1.20;;;;;;;26.50;59.49;98217.94;1705913;82;28001;-88
2022/07/14 08:35:41;;;;;;;3.17;1.30;;;;;;;26.59;59.53;98216.64;1696594;82;28077;-88
2022/07/14 08:38:07;;;;;;;2.25;1.40;;;;;;;26.64;59.40;98223.02;1670460;84;28094;-88
2022/07/14 08:40:37;;;;;;;3.55;1.02;;;;;;;26.73;59.37;98214.73;1683257;82;28179;-88
2022/07/14 08:43:02;;;;;;;1.42;1.22;;;;;;;26.79;59.29;98216.01;1701410;82;28043;-88
2022/07/14 08:45:32;;;;;;;1.95;1.20;;;;;;;26.84;59.39;98213.50;1699783;81;28099;-88
2022/07/14 08:47:58;;;;;;;3.20;1.20;;;;;;;26.91;59.25;98217.00;1701194;81;28001;-88
2022/07/14 08:50:29;;;;;;;2.65;1.22;;;;;;;26.98;59.11;98212.94;1699491;82;28120;-88
2022/07/14 08:52:53;;;;;;;2.80;1.30;;;;;;;27.01;58.85;98207.12;1700231;82;28150;-88
2022/07/14 08:55:22;;;;;;;2.05;1.30;;;;;;;27.17;58.95;98201.21;1742900;80;28102;-88
2022/07/14 08:57:49;;;;;;;3.08;1.27;;;;;;;27.33;58.67;98202.56;1743728;80;28092;-88
2022/07/14 09:00:17;;;;;;;3.20;1.50;;;;;;;27.36;58.08;98198.08;1727377;80;28071;-88
2022/07/14 09:02:50;;;;;;;2.72;1.40;;;;;;;27.42;57.81;98201.23;1739793;80;28108;-88
2022/07/14 09:05:18;;;;;;;3.02;1.30;;;;;;;27.45;57.57;98202.13;1699075;82;28069;-88
2022/07/14 09:07:45;;;;;;;1.98;1.40;;;;;;;27.62;57.65;98187.11;1705423;82;28145;-88
2022/07/14 09:10:14;;;;;;;3.77;1.42;;;;;;;27.77;57.44;98186.23;1702512;82;28110;-88
2022/07/14 09:12:42;;;;;;;1.70;1.52;;;;;;;27.93;57.53;98188.84;1697541;82;28025;-88
2022/07/14 09:17:58;;;;;;;1.90;1.37;;;;;;;28.13;57.40;98191.37;1701937;82;33502;-88
2022/07/14 09:20:29;;;;;;;2.62;1.30;;;;;;;28.25;57.40;98185.53;1674823;83;28143;-88
2022/07/14 09:22:57;;;;;;;3.08;1.10;;;;;;;28.38;57.47;98177.80;1694966;81;28100;-88
2022/07/14 09:25:25;;;;;;;3.62;1.40;;;;;;;28.46;57.17;98182.36;1739912;80;28106;-88
2022/07/14 09:27:52;;;;;;;3.20;1.25;;;;;;;28.47;56.74;98178.63;1732422;80;28148;-88
2022/07/14 09:30:19;;;;;;;2.65;1.50;;;;;;;28.47;56.30;98181.31;1736255;80;28221;-88
2022/07/14 09:32:50;;;;;;;1.00;0.98;;;;;;;28.48;56.09;98179.42;1728999;80;28105;-88
2022/07/14 09:35:20;;;;;;;5.28;1.12;;;;;;;28.62;56.24;98181.72;1736067;80;28117;-88
2022/07/14 09:37:47;;;;;;;2.30;1.35;;;;;;;28.65;55.73;98173.70;1734698;80;28060;-89
2022/07/14 09:40:28;;;;;;;2.83;1.42;;;;;;;28.76;55.55;98171.60;1734348;80;28117;-89
2022/07/14 09:43:08;;;;;;;1.07;0.98;;;;;;;28.80;55.02;98175.50;1735718;80;28086;-88
2022/07/14 09:45:37;;;;;;;2.22;1.27;;;;;;;28.85;54.69;98174.28;1733612;80;28104;-88
2022/07/14 09:48:09;;;;;;;3.05;1.40;;;;;;;28.94;54.56;98168.85;1736425;79;28064;-87
2022/07/14 09:51:01;;;;;;;1.52;1.42;;;;;;;29.00;54.30;98169.28;1734478;80;28127;-88
2022/07/14 09:53:36;;;;;;;3.30;1.15;;;;;;;29.07;54.32;98168.66;1740489;80;28090;-88
2022/07/14 09:56:07;;;;;;;3.72;1.57;;;;;;;29.01;53.67;98152.59;1737588;80;28121;-88
2022/07/14 09:58:37;;;;;;;3.98;1.50;;;;;;;28.95;53.36;98152.98;1725443;80;28076;-88
2022/07/14 10:01:15;;;;;;;2.87;1.50;;;;;;;28.92;53.01;98150.73;1722069;81;28101;-87
2022/07/14 10:03:46;;;;;;;2.83;1.55;;;;;;;29.00;53.04;98152.28;1726663;81;28066;-88
2022/07/14 10:06:14;;;;;;;2.08;1.42;;;;;;;29.16;53.03;98152.13;1728991;80;28156;-88
2022/07/14 10:08:43;;;;;;;1.90;1.47;;;;;;;29.26;53.25;98153.20;1730719;80;28140;-87
2022/07/14 10:11:18;;;;;;;2.27;1.42;;;;;;;29.26;52.90;98143.76;1731372;80;28010;-88
2022/07/14 10:13:45;;;;;;;5.22;1.80;;;;;;;29.24;52.40;98143.16;1729593;80;28638;-87
2022/07/14 10:16:15;;;;;;;3.87;1.50;;;;;;;29.31;52.05;98131.74;1715820;81;28175;-87
2022/07/14 10:18:45;;;;;;;2.30;1.50;;;;;;;29.30;51.71;98134.14;1732805;80;28005;-87
2022/07/14 10:21:11;;;;;;;2.72;1.20;;;;;;;29.43;51.80;98134.48;1729190;80;28058;-88
2022/07/14 10:23:40;;;;;;;3.40;1.67;;;;;;;29.48;51.51;98130.55;1722184;81;28088;-88
2022/07/14 10:26:10;;;;;;;2.95;1.60;;;;;;;29.46;51.04;98129.42;1720246;80;28096;-87
2022/07/14 10:28:39;;;;;;;4.00;1.50;;;;;;;29.36;50.43;98133.77;1735059;79;28167;-87
2022/07/14 10:31:21;;;;;;;3.92;1.80;;;;;;;29.24;50.17;98131.59;1718601;81;28122;-87
2022/07/14 10:33:51;;;;;;;3.35;1.60;;;;;;;29.23;49.98;98124.55;1708663;81;28086;-87
2022/07/14 10:36:21;;;;;;;1.95;1.60;;;;;;;29.18;49.64;98121.20;1707227;82;28088;-87
2022/07/14 10:39:09;;;;;;;2.67;1.40;;;;;;;29.08;49.30;98115.02;1687025;82;28180;-87
2022/07/14 10:42:05;;;;;;;2.00;1.57;;;;;;;29.00;49.10;98116.73;1710285;81;28095;-88
2022/07/14 10:44:37;;;;;;;5.45;1.70;;;;;;;29.17;49.42;98102.56;1756894;79;28067;-88
2022/07/14 10:47:09;;;;;;;2.20;1.47;;;;;;;29.49;50.24;98099.83;1752217;79;28060;-88
2022/07/14 10:50:12;;;;;;;1.37;1.27;;;;;;;29.74;50.60;98099.02;1758696;79;28064;-88
2022/07/14 10:52:54;;;;;;;2.90;1.30;;;;;;;29.91;50.44;98096.44;1756684;79;28174;-88
2022/07/14 10:55:27;;;;;;;1.87;1.25;;;;;;;30.07;50.54;98101.60;1747106;79;28019;-88
2022/07/14 10:58:04;;;;;;;3.50;1.20;;;;;;;30.20;50.17;98094.06;1749347;79;28114;-88
2022/07/14 11:00:46;;;;;;;3.37;1.20;;;;;;;30.19;49.64;98087.54;1747862;80;28094;-88
2022/07/14 11:03:39;;;;;;;3.98;1.80;;;;;;;30.13;48.94;98096.07;1752135;79;28206;-88
2022/07/14 11:06:15;;;;;;;1.90;1.20;;;;;;;30.12;48.69;98093.61;1726196;81;28105;-88
2022/07/14 11:08:44;;;;;;;3.77;1.20;;;;;;;30.07;48.53;98086.76;1770819;79;28166;-87
2022/07/14 11:11:18;;;;;;;2.05;1.52;;;;;;;30.03;48.28;98078.86;1756657;79;28092;-88
2022/07/14 11:14:03;;;;;;;1.65;1.07;;;;;;;30.06;48.21;98078.40;1756541;79;28086;-87
2022/07/14 11:16:55;;;;;;;2.55;1.10;;;;;;;30.14;48.03;98069.90;1720990;81;28104;-88
2022/07/14 11:19:41;;;;;;;3.95;1.60;;;;;;;30.10;47.97;98056.60;1736221;80;28100;-88
2022/07/14 11:22:24;;;;;;;3.35;2.00;;;;;;;29.96;47.38;98066.84;1733571;81;28099;-88
2022/07/14 11:24:59;;;;;;;2.58;1.50;;;;;;;29.82;47.20;98069.52;1736613;81;28203;-88
2022/07/14 11:27:35;;;;;;;2.98;1.75;;;;;;;29.79;47.48;98069.97;1746320;79;28143;-87
2022/07/14 11:30:30;;;;;;;4.60;1.92;;;;;;;29.71;47.50;98062.27;1759274;79;28082;-88
2022/07/14 11:33:00;;;;;;;1.90;1.40;;;;;;;29.76;47.45;98067.77;1763264;79;28156;-87
2022/07/14 11:38:35;;;;;;;2.80;1.60;;;;;;;29.78;47.12;98059.73;1769287;79;28147;-88
2022/07/14 11:41:02;;;;;;;3.92;1.27;;;;;;;29.93;47.28;98057.37;1749894;79;28168;-88
2022/07/14 11:43:40;;;;;;;7.70;1.65;;;;;;;30.07;47.53;98055.72;1755453;79;28089;-88
2022/07/14 11:46:15;;;;;;;1.50;1.40;;;;;;;30.13;47.65;98053.41;1756884;79;28098;-88
2022/07/14 11:48:48;;;;;;;5.72;1.30;;;;;;;30.20;47.63;98047.34;1752294;79;28186;-87
2022/07/14 11:51:27;;;;;;;3.50;1.60;;;;;;;30.30;47.50;98053.74;1693599;82;28115;-87
2022/07/14 11:54:01;;;;;;;2.27;1.55;;;;;;;30.41;47.52;98053.39;1704121;81;28088;-87
2022/07/14 11:56:30;;;;;;;3.17;1.45;;;;;;;30.46;47.07;98054.02;1705818;82;28109;-87
2022/07/14 11:58:59;;;;;;;3.72;1.30;;;;;;;30.38;46.89;98038.22;1710909;81;28070;-87